Campbellford, Canada
Current Conditions -  °F | °C
As of 1:00 AM on Sunday 26 Oct 2014 (Local Time) from CYTR Reporting Station
Few Clouds Few Clouds  
Wind Chill: 44°   Ceiling: Unl
Heat Index: 48°   Visibility: 15mi
Dew Point: 37°   Wind: 9mph
Humidity: 66%   Direction: 270°W
Pressure: 29.54"   Gusts: NA
Location:  44.3°N, 77.8°W
Report Text: CYTR 260500Z 27008KT 15SM FEW025 09/03 A2954 RMK SC1 SLP004
Loading
Personal Weather Stations






























Interactive Weather Map
Tropical Storm Tracking
New forecast layout! Learn more

10-Day Weather Forecast

Advertisements
Track Severe Weather on mobile